Main page
METAR-TAF:

METAR-TAF

Airports :

Helsinki Airport

Helsinki, Finland

latitude: 60-19N, longitude: 024-58E, elevation: 51 m

Current weather observation

The report was made 13 minutes ago, at 23:50 UTC
Wind 4 kt from the West
Temperature -3°C
Humidity 93%
Pressure 1001 hPa
Visibility: 7000 m
Few clouds at a height of 700 ft
Broken clouds at a height of 3500 ft
light snow

METAR: EFHK 272350Z 27004KT 7000 -SN FEW007 BKN035 M03/M04 Q1001 TEMPO 4000

Time: 02:03 (00:03 UTC)

Forecast

The report was made 40 minutes ago, at 23:23 UTC
Forecast valid from 28 at 00 UTC to 28 at 24 UTC
Wind 4 kt from the West
Visibility 10 km or more
Few clouds at a height of 700 ft
Broken clouds at a height of 3500 ft
light snow
Temporary
from 28 at 00 UTC to 28 at 03 UTC
Visibility: 6000 m
Broken clouds at a height of 600 ft
Probability 40%
from 28 at 00 UTC to 28 at 03 UTC
Visibility: 4000 m

TAF: EFHK 272323Z 2800/2824 27004KT 9999 -SN FEW007 BKN035 TEMPO 2800/2803 6000 BKN006 PROB40 2800/2803 4000

Weather observations and forecasts of more than 4000 airports (METAR and TAF reports).

The available stations are represented by yellow and red dots on the map.

Hover mouse over dot to see the name of the station.

Then click to see weather observations and forecasts.

To change the map : click on the green buttons with a black cross to zoom in, on the green button with a dash to zoom out, or on the green arrows for adjacent maps.


METAR-TAF: